Terminal Aerodrome Forecast
Issued by NWS

Home | Current Version | Previous Version | Text Only | Print | Product List | Glossary On
Versions: 1 2 3 4 5 6 7 8 9 10 11
000
FTUS41 KBTV 210528
TAFPBG
TAF
KPBG 210528Z 2106/2206 VRB04KT P6SM SKC
     FM211200 18005KT P6SM SCT200
     FM211700 17010G17KT P6SM BKN150
     FM220000 17010KT P6SM VCSH SCT080 BKN120
     FM220500 16006KT P6SM -SHRA SCT035 BKN050 OVC080=

USA.gov is the U.S. government's official web portal to all federal, state and local government web resources and services.